createdAt,value
2023-12-05T00:02:13.038Z,33.90
2023-12-05T00:05:21.023Z,23.93
2023-12-05T00:08:27.714Z,32.30
2023-12-05T00:11:33.978Z,34.77
2023-12-05T00:14:40.235Z,34.23
2023-12-05T00:17:46.729Z,34.43
2023-12-05T00:20:55.163Z,26.23
2023-12-05T00:24:01.592Z,21.37
2023-12-05T00:27:09.386Z,19.33
2023-12-05T00:30:17.094Z,20.90
2023-12-05T00:33:23.846Z,21.63
2023-12-05T00:36:31.499Z,19.23
2023-12-05T00:39:37.828Z,20.80
2023-12-05T00:42:44.325Z,15.77
2023-12-05T00:45:50.891Z,16.40
2023-12-05T00:48:57.314Z,16.07
2023-12-05T00:52:05.993Z,14.27
2023-12-05T00:55:12.290Z,15.87
2023-12-05T00:58:18.733Z,17.90
2023-12-05T01:01:25.244Z,21.23
2023-12-05T01:04:32.133Z,19.27
2023-12-05T01:07:40.306Z,25.60
2023-12-05T01:10:47.118Z,30.07
2023-12-05T01:13:53.624Z,20.63
2023-12-05T01:17:00.346Z,18.40
2023-12-05T01:20:10.390Z,26.20
2023-12-05T01:23:18.982Z,41.80
2023-12-05T01:26:25.438Z,34.97
2023-12-05T01:29:31.864Z,29.87
2023-12-05T01:32:38.649Z,32.43
2023-12-05T01:35:45.178Z,25.43
2023-12-05T01:38:53.095Z,28.80
2023-12-05T01:42:01.285Z,29.70
2023-12-05T01:45:10.151Z,27.17
2023-12-05T01:48:17.387Z,21.90
2023-12-05T01:51:23.886Z,33.17
2023-12-05T01:54:34.550Z,21.67
2023-12-05T01:57:41.094Z,27.10
2023-12-05T02:00:48.570Z,29.23
2023-12-05T02:03:55.440Z,21.83
2023-12-05T02:07:02.744Z,24.50
2023-12-05T02:10:12.020Z,21.83
2023-12-05T02:13:18.905Z,21.93
2023-12-05T02:16:32.808Z,22.30
2023-12-05T02:19:52.365Z,21.00
2023-12-05T02:23:24.422Z,20.13
2023-12-05T02:26:44.326Z,19.80
2023-12-05T02:29:53.777Z,22.53
2023-12-05T02:33:00.605Z,22.87
2023-12-05T02:36:18.714Z,24.47
2023-12-05T02:39:34.424Z,27.70
2023-12-05T02:42:41.940Z,30.57
2023-12-05T02:45:52.964Z,28.47
2023-12-05T02:49:15.176Z,20.43
2023-12-05T02:52:21.847Z,21.60
2023-12-05T02:55:28.257Z,15.13
2023-12-05T02:58:34.537Z,15.97
2023-12-05T03:01:42.916Z,19.80
2023-12-05T03:04:49.432Z,22.77
2023-12-05T03:07:56.114Z,23.03
2023-12-05T03:11:07.210Z,20.77
2023-12-05T03:14:16.567Z,19.43
2023-12-05T03:17:24.443Z,24.47
2023-12-05T03:20:31.150Z,21.60
2023-12-05T03:23:37.387Z,21.23
2023-12-05T03:26:43.971Z,20.43
2023-12-05T03:29:50.560Z,19.67
2023-12-05T03:32:58.535Z,25.37
2023-12-05T03:36:06.008Z,22.63
2023-12-05T03:39:12.900Z,20.97
2023-12-05T03:42:19.801Z,22.83
2023-12-05T03:45:26.704Z,26.43
2023-12-05T03:48:34.952Z,25.97
2023-12-05T03:51:41.545Z,27.00
2023-12-05T03:54:48.084Z,28.77
2023-12-05T03:57:54.917Z,25.20
2023-12-05T04:01:01.721Z,29.50
2023-12-05T04:04:09.752Z,27.20
2023-12-05T04:07:17.169Z,26.20
2023-12-05T04:10:25.078Z,23.57
2023-12-05T04:13:32.199Z,25.87
2023-12-05T04:16:38.724Z,18.57
2023-12-05T04:19:46.406Z,21.50
2023-12-05T04:22:53.023Z,24.23
2023-12-05T04:25:59.227Z,18.27
2023-12-05T04:29:05.728Z,29.97
2023-12-05T04:32:14.798Z,29.23
2023-12-05T04:35:22.605Z,45.30
2023-12-05T04:38:29.062Z,41.03
2023-12-05T04:41:36.981Z,70.17
2023-12-05T04:44:43.510Z,45.03
2023-12-05T04:47:50.215Z,40.73
2023-12-05T04:50:57.906Z,74.77
2023-12-05T04:54:04.820Z,33.47
2023-12-05T04:57:11.146Z,31.43
2023-12-05T05:00:18.558Z,29.57
2023-12-05T05:03:25.248Z,30.23
2023-12-05T05:06:33.102Z,33.40
2023-12-05T05:09:42.409Z,21.20
2023-12-05T05:12:49.023Z,22.83
2023-12-05T05:15:55.855Z,30.23
2023-12-05T05:19:02.958Z,34.97
2023-12-05T05:22:10.825Z,32.07
2023-12-05T05:25:17.809Z,40.97
2023-12-05T05:28:24.136Z,27.10
2023-12-05T05:31:30.444Z,29.40
2023-12-05T05:34:37.015Z,28.97
2023-12-05T05:37:45.194Z,38.37
2023-12-05T05:40:51.709Z,25.10
2023-12-05T05:43:57.951Z,22.23
2023-12-05T05:47:04.828Z,29.00
2023-12-05T05:50:13.150Z,47.13
2023-12-05T05:53:20.984Z,134.97
2023-12-05T05:56:27.796Z,94.83
2023-12-05T05:59:34.405Z,70.37
2023-12-05T06:02:41.366Z,68.17
2023-12-05T06:05:48.078Z,36.40
2023-12-05T06:08:56.812Z,24.80
2023-12-05T06:12:04.343Z,36.60
2023-12-05T06:15:11.487Z,39.77
2023-12-05T06:18:18.004Z,30.00
2023-12-05T06:21:24.427Z,37.53
2023-12-05T06:24:32.283Z,42.70
2023-12-05T06:27:38.721Z,42.23
2023-12-05T06:30:45.600Z,19.67
2023-12-05T06:33:52.787Z,25.73
2023-12-05T06:36:59.681Z,24.00
2023-12-05T06:40:09.069Z,35.33
2023-12-05T06:43:15.298Z,48.27
2023-12-05T06:46:21.986Z,21.23
2023-12-05T06:49:28.944Z,32.27
2023-12-05T06:52:35.465Z,33.93
2023-12-05T06:55:43.578Z,51.17
2023-12-05T06:58:50.137Z,37.93
2023-12-05T07:01:57.246Z,31.77
2023-12-05T07:05:06.412Z,30.80
2023-12-05T07:08:13.106Z,38.40
2023-12-05T07:11:21.306Z,43.53
2023-12-05T07:14:28.129Z,41.07
2023-12-05T07:17:34.832Z,34.30
2023-12-05T07:20:41.241Z,41.77
2023-12-05T07:23:55.202Z,99.67
2023-12-05T07:27:08.915Z,67.77
2023-12-05T07:30:16.306Z,55.23
2023-12-05T07:33:22.860Z,22.93
2023-12-05T07:36:29.448Z,54.27
2023-12-05T07:39:36.820Z,102.17
2023-12-05T07:42:45.483Z,44.63
2023-12-05T07:45:52.266Z,39.10
2023-12-05T07:48:58.946Z,44.07
2023-12-05T07:52:06.793Z,20.53
2023-12-05T07:55:13.689Z,25.13
2023-12-05T07:58:21.340Z,34.07
2023-12-05T08:01:27.929Z,56.90
2023-12-05T08:04:34.498Z,49.47
2023-12-05T08:07:41.285Z,38.10
2023-12-05T08:10:48.065Z,68.47
2023-12-05T08:13:56.092Z,74.00
2023-12-05T08:17:02.672Z,61.33
2023-12-05T08:20:10.375Z,43.87
2023-12-05T08:23:17.184Z,29.13
2023-12-05T08:26:23.742Z,27.57
2023-12-05T08:29:31.673Z,35.13
2023-12-05T08:32:38.449Z,39.33
2023-12-05T08:35:45.093Z,45.30
2023-12-05T08:38:51.830Z,35.10
2023-12-05T08:42:00.699Z,103.47
2023-12-05T08:45:12.349Z,66.83
2023-12-05T08:48:19.336Z,87.97
2023-12-05T08:51:26.285Z,30.03
2023-12-05T08:54:33.414Z,33.70
2023-12-05T08:57:40.467Z,54.90
2023-12-05T09:00:48.529Z,30.53
2023-12-05T09:03:56.919Z,25.00
2023-12-05T09:07:04.763Z,31.50
2023-12-05T09:10:11.816Z,46.10
2023-12-05T09:13:18.417Z,56.43
2023-12-05T09:16:26.506Z,35.50
2023-12-05T09:19:33.411Z,29.83
2023-12-05T09:22:40.436Z,38.17
2023-12-05T09:25:46.980Z,41.17
2023-12-05T09:28:53.438Z,40.93
2023-12-05T09:32:01.609Z,52.73
2023-12-05T09:35:09.272Z,30.20
2023-12-05T09:38:16.008Z,30.63
2023-12-05T09:41:23.132Z,31.27
2023-12-05T09:44:31.065Z,150.70
2023-12-05T09:47:41.320Z,23.50
2023-12-05T09:50:48.597Z,18.20
2023-12-05T09:53:57.527Z,25.37
2023-12-05T09:57:04.698Z,25.70
2023-12-05T10:00:12.434Z,29.30
2023-12-05T10:03:22.017Z,44.87
2023-12-05T10:06:28.870Z,37.07
2023-12-05T10:09:35.909Z,43.83
2023-12-05T10:12:43.319Z,44.77
2023-12-05T10:15:50.186Z,41.43
2023-12-05T10:18:59.006Z,36.30
2023-12-05T10:22:06.100Z,41.30
2023-12-05T10:25:16.210Z,35.77
2023-12-05T10:28:22.878Z,41.37
2023-12-05T10:31:29.712Z,19.80
2023-12-05T10:34:50.563Z,17.83
2023-12-05T10:37:57.553Z,14.30
2023-12-05T10:41:04.026Z,29.63
2023-12-05T10:44:10.594Z,37.63
2023-12-05T10:47:19.907Z,66.60
2023-12-05T10:50:28.356Z,47.70
2023-12-05T10:53:37.138Z,21.00
2023-12-05T10:56:58.439Z,19.23
2023-12-05T11:00:07.619Z,32.83
2023-12-05T11:03:16.084Z,17.00
2023-12-05T11:06:27.000Z,17.97
2023-12-05T11:09:33.180Z,46.70
2023-12-05T11:12:42.197Z,29.00
2023-12-05T11:15:52.526Z,38.67
2023-12-05T11:19:13.486Z,37.23
2023-12-05T11:22:28.961Z,32.50
2023-12-05T11:25:49.723Z,28.03
2023-12-05T11:29:17.227Z,25.67
2023-12-05T11:32:35.555Z,28.37
2023-12-05T11:36:03.059Z,47.17
2023-12-05T11:39:12.342Z,27.93
2023-12-05T11:42:20.578Z,26.00
2023-12-05T11:45:27.481Z,15.47
2023-12-05T11:48:35.054Z,12.03
2023-12-05T11:51:41.727Z,31.20
2023-12-05T11:54:50.656Z,20.87
2023-12-05T11:57:57.268Z,20.03
2023-12-05T12:01:05.501Z,22.53
2023-12-05T12:04:20.525Z,25.90
2023-12-05T12:07:27.677Z,25.23
2023-12-05T12:10:35.873Z,41.53
2023-12-05T12:13:44.685Z,30.83
2023-12-05T12:16:52.607Z,37.80
2023-12-05T12:19:59.527Z,34.80
2023-12-05T12:23:06.474Z,33.30
2023-12-05T12:26:15.442Z,36.27
2023-12-05T12:29:22.645Z,29.03
2023-12-05T12:32:29.445Z,32.17
2023-12-05T12:35:36.355Z,28.10
2023-12-05T12:38:43.706Z,22.43
2023-12-05T12:41:52.100Z,29.50
2023-12-05T12:44:58.487Z,25.07
2023-12-05T12:48:05.854Z,23.60
2023-12-05T12:51:13.384Z,27.33
2023-12-05T12:54:20.597Z,26.50
2023-12-05T12:57:28.407Z,18.97
2023-12-05T13:00:38.576Z,25.67
2023-12-05T13:03:46.523Z,28.60
2023-12-05T13:06:53.656Z,39.90
2023-12-05T13:10:00.769Z,23.90
2023-12-05T13:13:09.871Z,21.60
2023-12-05T13:16:16.715Z,22.33
2023-12-05T13:19:25.000Z,20.03
2023-12-05T13:22:31.953Z,20.97
2023-12-05T13:25:43.547Z,12.23
2023-12-05T13:28:53.912Z,8.23
2023-12-05T13:32:00.835Z,7.03
2023-12-05T13:35:09.666Z,7.77
2023-12-05T13:38:16.443Z,12.43
2023-12-05T13:41:22.896Z,8.37
2023-12-05T13:44:30.702Z,6.10
2023-12-05T13:47:37.040Z,7.77
2023-12-05T13:50:43.600Z,8.77
2023-12-05T13:53:50.007Z,8.33
2023-12-05T13:56:56.622Z,7.03
2023-12-05T14:00:05.720Z,30.80
2023-12-05T14:03:12.347Z,17.40
2023-12-05T14:06:19.168Z,51.53
2023-12-05T14:09:26.124Z,30.13
2023-12-05T14:12:32.527Z,27.63
2023-12-05T14:15:40.819Z,35.10
2023-12-05T14:18:47.568Z,33.57
2023-12-05T14:21:55.414Z,44.00
2023-12-05T14:25:02.194Z,44.90
2023-12-05T14:28:09.246Z,38.43
2023-12-05T14:31:17.695Z,27.97
2023-12-05T14:34:24.329Z,32.73
2023-12-05T14:37:31.120Z,69.17
2023-12-05T14:40:37.821Z,130.90
2023-12-05T14:43:44.546Z,78.60
2023-12-05T14:46:52.609Z,52.07
2023-12-05T14:49:59.099Z,156.73
2023-12-05T14:53:05.799Z,81.37
2023-12-05T14:56:12.410Z,57.90
2023-12-05T14:59:19.025Z,42.47
2023-12-05T15:02:27.278Z,59.60
2023-12-05T15:05:34.264Z,61.47
2023-12-05T15:08:40.525Z,52.83
2023-12-05T15:11:47.476Z,84.57
2023-12-05T15:14:54.375Z,70.00
2023-12-05T15:18:01.999Z,84.97
2023-12-05T15:21:09.276Z,90.93
2023-12-05T15:24:15.909Z,74.53
2023-12-05T15:27:22.401Z,67.40
2023-12-05T15:30:28.770Z,66.50
2023-12-05T15:33:36.978Z,54.53
2023-12-05T15:36:43.744Z,71.30
2023-12-05T15:39:50.361Z,72.63
2023-12-05T15:42:57.221Z,77.30
2023-12-05T15:46:03.881Z,86.67
2023-12-05T15:49:12.119Z,91.20
2023-12-05T15:52:18.655Z,68.43
2023-12-05T15:55:26.508Z,118.60
2023-12-05T15:58:33.239Z,97.03
2023-12-05T16:01:40.024Z,45.63
2023-12-05T16:04:48.444Z,39.43
2023-12-05T16:07:55.275Z,65.20
2023-12-05T16:11:01.753Z,72.93
2023-12-05T16:14:08.748Z,59.40
2023-12-05T16:17:15.516Z,58.13
2023-12-05T16:20:23.716Z,62.60
2023-12-05T16:23:31.129Z,65.57
2023-12-05T16:26:40.879Z,94.20
2023-12-05T16:29:47.276Z,107.80
2023-12-05T16:32:54.262Z,107.17
2023-12-05T16:36:02.107Z,103.43
2023-12-05T16:39:08.883Z,103.77
2023-12-05T16:42:15.240Z,119.03
2023-12-05T16:45:25.966Z,80.80
2023-12-05T16:48:33.966Z,62.70
2023-12-05T16:51:41.890Z,60.97
2023-12-05T16:54:48.052Z,75.27
2023-12-05T16:57:54.910Z,95.07
2023-12-05T17:01:01.546Z,111.50
2023-12-05T17:04:07.921Z,107.17
2023-12-05T17:07:16.141Z,102.20
2023-12-05T17:10:22.730Z,98.03
2023-12-05T17:13:29.290Z,126.00
2023-12-05T17:16:35.866Z,168.00
2023-12-05T17:19:42.650Z,187.27
2023-12-05T17:22:51.388Z,179.00
2023-12-05T17:25:57.989Z,119.87
2023-12-05T17:29:04.676Z,62.93
2023-12-05T17:32:13.128Z,62.77
2023-12-05T17:35:19.864Z,52.63
2023-12-05T17:38:27.985Z,74.77
2023-12-05T17:41:35.297Z,104.37
2023-12-05T17:44:42.973Z,114.17
2023-12-05T17:47:49.809Z,115.70
2023-12-05T17:50:56.244Z,100.77
2023-12-05T17:54:04.475Z,111.83
2023-12-05T17:57:11.929Z,82.80
2023-12-05T18:00:19.080Z,100.20
2023-12-05T18:03:26.144Z,92.23
2023-12-05T18:06:32.756Z,99.07
2023-12-05T18:09:41.007Z,113.47
2023-12-05T18:12:47.899Z,131.23
2023-12-05T18:15:54.776Z,111.87
2023-12-05T18:19:07.069Z,120.80
2023-12-05T18:22:14.206Z,107.67
2023-12-05T18:25:23.800Z,102.67
2023-12-05T18:28:30.507Z,105.13
2023-12-05T18:31:36.901Z,118.60
2023-12-05T18:34:43.507Z,123.87
2023-12-05T18:37:50.255Z,134.03
2023-12-05T18:40:58.582Z,120.17
2023-12-05T18:44:04.928Z,112.33
2023-12-05T18:47:11.686Z,106.03
2023-12-05T18:50:19.070Z,122.60
2023-12-05T18:53:29.590Z,103.30
2023-12-05T18:56:37.632Z,46.03
2023-12-05T18:59:45.051Z,76.13
2023-12-05T19:02:52.062Z,116.60
2023-12-05T19:06:00.329Z,92.33
2023-12-05T19:09:07.181Z,87.43
2023-12-05T19:12:15.401Z,61.50
2023-12-05T19:15:24.127Z,66.50
2023-12-05T19:18:30.945Z,39.40
2023-12-05T19:21:37.812Z,41.10
2023-12-05T19:24:45.900Z,41.57
2023-12-05T19:27:55.422Z,36.80
2023-12-05T19:31:02.288Z,33.43
2023-12-05T19:34:09.267Z,30.70
2023-12-05T19:37:15.938Z,60.33
2023-12-05T19:40:22.464Z,58.93
2023-12-05T19:43:30.560Z,33.00
2023-12-05T19:46:37.407Z,29.13
2023-12-05T19:49:44.005Z,32.87
2023-12-05T19:52:54.143Z,95.67
2023-12-05T19:56:00.774Z,129.67
2023-12-05T19:59:09.207Z,78.43
2023-12-05T20:02:16.042Z,50.37
2023-12-05T20:05:22.848Z,58.10
2023-12-05T20:08:29.525Z,73.07
2023-12-05T20:11:36.412Z,68.97
2023-12-05T20:14:44.100Z,72.63
2023-12-05T20:17:50.741Z,92.93
2023-12-05T20:20:57.699Z,78.43
2023-12-05T20:24:04.988Z,65.30
2023-12-05T20:27:13.885Z,45.97
2023-12-05T20:30:22.622Z,54.27
2023-12-05T20:33:29.464Z,52.20
2023-12-05T20:36:36.138Z,46.10
2023-12-05T20:39:43.713Z,43.63
2023-12-05T20:42:50.312Z,65.07
2023-12-05T20:45:58.670Z,83.60
2023-12-05T20:49:05.351Z,68.50
2023-12-05T20:52:11.715Z,67.63
2023-12-05T20:55:18.142Z,56.33
2023-12-05T20:58:24.881Z,47.90
2023-12-05T21:01:33.289Z,41.63
2023-12-05T21:04:41.208Z,36.97
2023-12-05T21:07:48.334Z,38.37
2023-12-05T21:10:56.077Z,40.67
2023-12-05T21:14:03.483Z,47.27
2023-12-05T21:17:11.314Z,41.50
2023-12-05T21:20:20.528Z,58.10
2023-12-05T21:23:30.537Z,50.50
2023-12-05T21:26:36.976Z,43.20
2023-12-05T21:29:43.637Z,29.33
2023-12-05T21:32:51.661Z,32.20
2023-12-05T21:35:58.448Z,30.30
2023-12-05T21:39:05.237Z,32.87
2023-12-05T21:42:12.190Z,33.03
2023-12-05T21:45:19.494Z,33.27
2023-12-05T21:48:27.497Z,35.47
2023-12-05T21:51:35.852Z,35.50
2023-12-05T21:54:42.209Z,39.57
2023-12-05T21:57:48.737Z,48.43
2023-12-05T22:00:55.687Z,70.27
2023-12-05T22:04:03.811Z,80.93
2023-12-05T22:07:10.211Z,53.47
2023-12-05T22:10:17.443Z,59.33
2023-12-05T22:13:24.237Z,45.03
2023-12-05T22:16:31.055Z,37.13
2023-12-05T22:19:39.052Z,36.60
2023-12-05T22:22:45.443Z,38.87
2023-12-05T22:25:51.819Z,37.43
2023-12-05T22:28:58.645Z,26.70
2023-12-05T22:32:05.053Z,54.53
2023-12-05T22:35:13.323Z,54.33
2023-12-05T22:38:20.008Z,77.20
2023-12-05T22:41:26.757Z,88.63
2023-12-05T22:44:33.397Z,104.27
2023-12-05T22:47:40.094Z,83.97
2023-12-05T22:50:48.033Z,75.63
2023-12-05T22:53:54.128Z,52.87
2023-12-05T22:57:00.651Z,48.57
2023-12-05T23:00:09.384Z,50.47
2023-12-05T23:03:15.980Z,42.83
2023-12-05T23:06:23.776Z,44.63
2023-12-05T23:09:30.007Z,39.03
2023-12-05T23:12:36.772Z,37.77
2023-12-05T23:15:43.545Z,46.00
2023-12-05T23:18:51.796Z,53.20
2023-12-05T23:22:00.000Z,51.13
2023-12-05T23:25:07.349Z,43.77
2023-12-05T23:28:18.697Z,37.60
2023-12-05T23:31:28.780Z,39.93
2023-12-05T23:34:35.799Z,35.63
2023-12-05T23:37:43.893Z,51.83
2023-12-05T23:40:50.341Z,36.00
2023-12-05T23:43:56.824Z,30.30
2023-12-05T23:47:03.318Z,32.10
2023-12-05T23:50:10.517Z,52.63
2023-12-05T23:53:18.151Z,45.40
2023-12-05T23:56:24.759Z,47.40
2023-12-05T23:59:31.403Z,38.50
